Time;durP1;ratioP1;P1;durP2;ratioP2;P2;SDS_P1;SDS_P2;PMS_P1;PMS_P2;Temp;Humidity;BMP_temperature;BMP_pressure;BME280_temperature;BME280_humidity;BME280_pressure;Samples;Min_cycle;Max_cycle;Signal;HPM_P1;HPM_P2
2021/06/25 00:02:18;;;;;;;37.28;17.90;;;;;;;21.44;100.00;99396.16;1657667;85;21396;-60
2021/06/25 00:04:44;;;;;;;34.53;16.85;;;;;;;21.44;100.00;99398.09;1667249;85;20952;-60
2021/06/25 00:07:11;;;;;;;37.63;17.32;;;;;;;21.42;100.00;99390.80;1670456;85;20934;-61
2021/06/25 00:09:38;;;;;;;39.60;16.52;;;;;;;21.35;100.00;99391.28;1660600;84;21808;-60
2021/06/25 00:12:09;;;;;;;33.23;15.70;;;;;;;21.23;100.00;99385.15;1666054;85;21013;-60
2021/06/25 00:14:36;;;;;;;30.50;15.72;;;;;;;21.13;100.00;99386.89;1666958;85;21051;-60
2021/06/25 00:17:04;;;;;;;49.05;15.93;;;;;;;21.04;100.00;99378.73;1657156;84;21474;-60
2021/06/25 00:19:30;;;;;;;40.45;18.15;;;;;;;20.92;100.00;99379.44;1658555;85;20917;-61
2021/06/25 00:21:57;;;;;;;48.85;17.73;;;;;;;20.82;100.00;99369.44;1662153;85;21145;-60
2021/06/25 00:24:24;;;;;;;41.73;17.45;;;;;;;20.72;100.00;99363.77;1668300;84;21518;-61
2021/06/25 00:26:51;;;;;;;39.00;17.27;;;;;;;20.64;100.00;99361.31;1663340;84;20892;-61
2021/06/25 00:29:18;;;;;;;41.50;17.77;;;;;;;20.58;100.00;99355.81;1660504;84;20880;-61
2021/06/25 00:31:45;;;;;;;41.08;18.50;;;;;;;20.53;100.00;99345.84;1657696;84;20974;-61
2021/06/25 00:34:12;;;;;;;39.58;17.12;;;;;;;20.49;100.00;99342.73;1653367;86;21408;-61
2021/06/25 00:36:39;;;;;;;36.98;17.65;;;;;;;20.43;100.00;99343.47;1721970;82;20858;-60
2021/06/25 00:39:05;;;;;;;32.90;15.72;;;;;;;20.40;100.00;99340.58;1725883;82;20991;-60
2021/06/25 00:41:32;;;;;;;31.20;15.53;;;;;;;20.39;100.00;99346.59;1724712;82;21424;-60
2021/06/25 00:43:59;;;;;;;33.85;15.83;;;;;;;20.41;100.00;99340.83;1718515;82;22238;-61
2021/06/25 00:46:26;;;;;;;35.00;16.32;;;;;;;20.40;100.00;99333.77;1720737;82;21868;-61
2021/06/25 00:48:53;;;;;;;36.85;15.13;;;;;;;20.40;100.00;99333.77;1725716;82;20952;-61
2021/06/25 00:51:20;;;;;;;40.48;15.65;;;;;;;20.38;100.00;99338.16;1724721;82;20989;-61
2021/06/25 00:53:47;;;;;;;38.20;15.88;;;;;;;20.29;100.00;99345.02;1723958;82;20894;-61
2021/06/25 00:56:14;;;;;;;32.10;16.02;;;;;;;20.22;100.00;99339.82;1726100;82;20909;-61
2021/06/25 00:58:41;;;;;;;40.95;19.35;;;;;;;20.19;100.00;99338.54;1726159;82;21638;-60
2021/06/25 01:01:07;;;;;;;37.88;19.02;;;;;;;20.21;100.00;99334.11;1719635;82;20849;-60
2021/06/25 01:03:35;;;;;;;33.70;19.40;;;;;;;20.13;100.00;99320.74;1726043;82;20923;-61
2021/06/25 01:06:02;;;;;;;33.95;18.73;;;;;;;20.00;100.00;99317.65;1721856;82;20900;-60
2021/06/25 01:08:29;;;;;;;46.98;20.65;;;;;;;19.87;100.00;99312.05;1699423;82;20925;-61
2021/06/25 01:10:55;;;;;;;36.95;20.68;;;;;;;19.79;100.00;99310.68;1724702;82;21784;-61
2021/06/25 01:13:22;;;;;;;33.65;21.25;;;;;;;19.70;100.00;99307.41;1717918;82;21116;-60
2021/06/25 01:15:49;;;;;;;37.08;21.10;;;;;;;19.64;100.00;99304.55;1709122;82;21065;-61
2021/06/25 01:18:15;;;;;;;48.87;20.40;;;;;;;19.63;100.00;99304.89;1717675;82;21004;-61
2021/06/25 01:20:42;;;;;;;39.50;20.90;;;;;;;19.60;100.00;99305.52;1715907;82;20967;-61
2021/06/25 01:23:08;;;;;;;37.53;20.50;;;;;;;19.62;100.00;99304.09;1710372;82;21140;-61
2021/06/25 01:25:37;;;;;;;34.18;19.15;;;;;;;19.64;100.00;99303.20;1721867;82;20857;-60
2021/06/25 01:28:10;;;;;;;42.70;20.05;;;;;;;19.66;100.00;99306.41;1723034;82;21373;-60
2021/06/25 01:30:41;;;;;;;37.90;18.00;;;;;;;19.76;100.00;99309.39;1721891;82;21008;-60
2021/06/25 01:33:10;;;;;;;36.68;17.85;;;;;;;19.80;100.00;99317.74;1714633;83;20925;-60
2021/06/25 01:35:37;;;;;;;35.30;18.10;;;;;;;19.76;100.00;99323.02;1720326;82;21062;-60
2021/06/25 01:38:04;;;;;;;37.60;16.40;;;;;;;19.73;100.00;99318.78;1719319;82;21384;-60
2021/06/25 01:40:31;;;;;;;34.65;15.00;;;;;;;19.77;100.00;99328.72;1721515;82;21479;-60
2021/06/25 01:42:59;;;;;;;41.70;16.73;;;;;;;19.81;100.00;99325.58;1722065;82;20910;-60
2021/06/25 01:45:26;;;;;;;38.23;17.20;;;;;;;19.85;100.00;99321.09;1710199;82;20959;-61
2021/06/25 01:47:52;;;;;;;34.75;16.80;;;;;;;19.84;100.00;99324.13;1718737;82;21078;-61
2021/06/25 01:50:23;;;;;;;36.17;18.55;;;;;;;19.81;100.00;99327.50;1715676;82;20914;-61
2021/06/25 01:53:00;;;;;;;39.40;17.52;;;;;;;19.74;100.00;99332.06;1726644;82;22119;-61
2021/06/25 01:55:25;;;;;;;34.35;18.25;;;;;;;19.75;100.00;99329.59;1729064;82;20901;-60
2021/06/25 01:57:52;;;;;;;35.58;19.73;;;;;;;19.76;100.00;99327.66;1718168;83;21355;-60
2021/06/25 02:00:20;;;;;;;31.73;17.55;;;;;;;19.72;100.00;99323.97;1719997;82;21173;-61
2021/06/25 02:02:46;;;;;;;34.93;17.67;;;;;;;19.70;100.00;99329.75;1725667;82;20919;-60
2021/06/25 02:05:14;;;;;;;27.77;17.00;;;;;;;19.72;100.00;99324.80;1719726;82;20830;-61
2021/06/25 02:07:42;;;;;;;41.55;17.92;;;;;;;19.79;100.00;99320.20;1717010;82;20865;-60
2021/06/25 02:10:11;;;;;;;34.63;17.73;;;;;;;19.84;100.00;99333.66;1721234;82;26845;-60
2021/06/25 02:12:39;;;;;;;38.10;17.65;;;;;;;19.87;100.00;99328.39;1689621;82;20969;-61
2021/06/25 02:15:08;;;;;;;37.30;17.07;;;;;;;19.90;100.00;99338.64;1708616;82;20941;-61
2021/06/25 02:17:35;;;;;;;38.45;16.90;;;;;;;19.91;100.00;99338.86;1709079;82;20945;-60
2021/06/25 02:20:04;;;;;;;36.17;16.70;;;;;;;19.90;100.00;99328.31;1659475;84;21009;-60
2021/06/25 02:22:31;;;;;;;43.58;20.82;;;;;;;19.93;100.00;99325.50;1715910;82;20968;-60
2021/06/25 02:24:57;;;;;;;58.10;24.95;;;;;;;20.01;100.00;99323.32;1713370;82;21830;-60
2021/06/25 02:27:23;;;;;;;54.50;27.60;;;;;;;20.07;100.00;99320.69;1721847;82;20874;-60
2021/06/25 02:29:50;;;;;;;39.88;21.52;;;;;;;20.11;100.00;99324.34;1719951;82;21155;-60
2021/06/25 02:32:16;;;;;;;51.20;23.32;;;;;;;20.15;100.00;99319.86;1717675;82;21477;-60
2021/06/25 02:34:43;;;;;;;55.12;24.85;;;;;;;20.19;100.00;99321.40;1708471;83;20977;-60
2021/06/25 02:37:10;;;;;;;50.48;24.75;;;;;;;20.23;100.00;99323.69;1711695;82;21139;-61
2021/06/25 02:39:38;;;;;;;46.30;24.32;;;;;;;20.27;100.00;99320.00;1706680;83;21007;-61
2021/06/25 02:42:05;;;;;;;51.28;23.10;;;;;;;20.31;100.00;99322.33;1698266;82;20909;-60
2021/06/25 02:44:32;;;;;;;60.33;20.10;;;;;;;20.36;100.00;99321.36;1718646;82;20977;-60
2021/06/25 02:46:58;;;;;;;51.85;21.35;;;;;;;20.42;100.00;99322.77;1718576;82;21396;-60
2021/06/25 02:49:25;;;;;;;44.53;19.75;;;;;;;20.46;100.00;99328.39;1719608;82;21131;-60
2021/06/25 02:51:51;;;;;;;43.60;19.52;;;;;;;20.45;100.00;99326.77;1719080;82;20893;-60
2021/06/25 02:54:18;;;;;;;76.07;23.73;;;;;;;20.45;100.00;99325.41;1717510;82;21427;-61
2021/06/25 02:56:44;;;;;;;55.78;20.37;;;;;;;20.49;100.00;99324.44;1717827;82;20893;-61
2021/06/25 02:59:11;;;;;;;47.15;19.12;;;;;;;20.58;100.00;99323.09;1714694;83;20893;-60
2021/06/25 03:01:38;;;;;;;59.95;18.07;;;;;;;20.68;100.00;99327.39;1710586;83;21037;-61
2021/06/25 03:04:04;;;;;;;49.30;18.07;;;;;;;20.77;100.00;99328.13;1717198;82;21095;-60
2021/06/25 03:06:31;;;;;;;41.53;18.77;;;;;;;20.89;100.00;99331.54;1724144;82;21531;-60
2021/06/25 03:08:58;;;;;;;51.13;17.92;;;;;;;20.97;100.00;99336.97;1704667;82;21029;-60
2021/06/25 03:11:24;;;;;;;50.58;20.40;;;;;;;21.05;100.00;99334.53;1720955;82;21593;-61
2021/06/25 03:13:52;;;;;;;;;;;;;;;21.10;100.00;99336.50;1725238;82;21129;-61
2021/06/25 03:16:18;;;;;;;52.10;16.65;;;;;;;21.16;100.00;99325.62;1714592;82;20084;-61
2021/06/25 03:18:45;;;;;;;40.20;17.17;;;;;;;21.31;100.00;99324.27;1718875;83;21284;-60
2021/06/25 03:21:12;;;;;;;45.30;17.80;;;;;;;21.31;100.00;99324.27;1715990;82;20885;-60
2021/06/25 03:23:40;;;;;;;48.80;18.57;;;;;;;21.45;100.00;99323.23;1669962;83;21389;-60
2021/06/25 03:26:07;;;;;;;45.43;18.87;;;;;;;21.45;100.00;99323.23;1724304;82;21432;-60
2021/06/25 03:28:33;;;;;;;44.75;17.10;;;;;;;21.50;100.00;99323.04;1720832;82;20909;-60
2021/06/25 03:31:00;;;;;;;37.20;15.68;;;;;;;21.54;100.00;99326.14;1717491;82;20861;-60
2021/06/25 03:33:27;;;;;;;38.23;16.30;;;;;;;21.56;100.00;99317.05;1717598;82;22292;-60
2021/06/25 03:35:54;;;;;;;39.20;15.00;;;;;;;21.66;100.00;99322.69;1717143;82;21055;-60
2021/06/25 03:38:20;;;;;;;61.55;16.25;;;;;;;21.72;100.00;99318.61;1723640;82;21129;-60
2021/06/25 03:40:47;;;;;;;42.80;12.95;;;;;;;21.85;100.00;99323.56;1726020;82;21167;-61
2021/06/25 03:43:13;;;;;;;49.30;12.33;;;;;;;21.95;100.00;99325.91;1707233;82;21092;-61
2021/06/25 03:45:40;;;;;;;66.70;14.87;;;;;;;22.04;100.00;99329.91;1715386;82;20924;-61
2021/06/25 03:48:08;;;;;;;49.58;12.75;;;;;;;22.10;100.00;99330.48;1715966;82;21039;-60
2021/06/25 03:50:34;;;;;;;36.77;12.45;;;;;;;22.16;100.00;99332.69;1722327;82;21121;-60
2021/06/25 03:53:01;;;;;;;39.60;12.15;;;;;;;22.17;100.00;99332.11;1717203;82;20897;-60
2021/06/25 03:55:27;;;;;;;26.42;10.08;;;;;;;22.22;100.00;99340.13;1722514;82;20929;-60
2021/06/25 03:57:54;;;;;;;26.37;10.58;;;;;;;22.31;100.00;99340.85;1718729;82;21495;-60
2021/06/25 04:00:21;;;;;;;37.03;10.10;;;;;;;22.38;100.00;99335.63;1717028;83;20970;-61
2021/06/25 04:02:47;;;;;;;30.85;10.38;;;;;;;22.48;100.00;99344.77;1708878;82;21189;-60
2021/06/25 04:05:15;;;;;;;43.35;10.23;;;;;;;22.54;100.00;99353.58;1709774;82;20896;-60
2021/06/25 04:07:42;;;;;;;34.35;9.83;;;;;;;22.63;100.00;99356.20;1706621;82;21479;-61
2021/06/25 04:10:11;;;;;;;24.32;8.95;;;;;;;22.78;100.00;99357.48;1724976;82;20936;-61
2021/06/25 04:12:38;;;;;;;30.80;9.80;;;;;;;22.93;100.00;99356.01;1711700;82;21465;-61
2021/06/25 04:15:07;;;;;;;18.90;7.87;;;;;;;23.30;100.00;99346.70;1723061;82;21141;-61
2021/06/25 04:17:34;;;;;;;32.42;9.08;;;;;;;23.30;100.00;99346.70;1722130;83;20894;-61
2021/06/25 04:20:02;;;;;;;27.87;9.50;;;;;;;23.49;100.00;99346.11;1714665;82;21367;-60
2021/06/25 04:22:28;;;;;;;27.70;9.58;;;;;;;23.57;100.00;99353.97;1677170;82;20920;-61
2021/06/25 04:24:55;;;;;;;32.05;9.68;;;;;;;23.66;100.00;99350.50;1667357;84;20969;-60
2021/06/25 04:27:22;;;;;;;24.87;8.90;;;;;;;23.71;100.00;99355.77;1680619;82;21135;-60
2021/06/25 04:29:48;;;;;;;27.00;9.43;;;;;;;23.80;100.00;99359.75;1688039;83;21023;-61
2021/06/25 04:32:16;;;;;;;27.70;8.65;;;;;;;23.91;100.00;99364.16;1676937;84;21084;-60
2021/06/25 04:34:43;;;;;;;25.55;8.88;;;;;;;23.95;100.00;99376.83;1690974;83;21506;-60
2021/06/25 04:37:12;;;;;;;47.85;9.65;;;;;;;24.01;100.00;99377.95;1677159;84;21027;-60
2021/06/25 04:39:39;;;;;;;26.20;9.13;;;;;;;24.15;100.00;99377.78;1695679;83;21057;-59
2021/06/25 04:42:09;;;;;;;40.48;10.63;;;;;;;24.25;100.00;99386.09;1678070;83;20882;-58
2021/06/25 04:44:37;;;;;;;108.10;17.85;;;;;;;24.33;100.00;99387.90;1697493;83;21458;-58
2021/06/25 04:47:04;;;;;;;30.20;12.43;;;;;;;24.37;100.00;99379.17;1668490;83;20882;-58
2021/06/25 04:49:35;;;;;;;32.53;11.15;;;;;;;24.39;100.00;99374.14;1686239;83;21355;-58
2021/06/25 04:52:02;;;;;;;50.40;16.90;;;;;;;24.46;100.00;99379.06;1688528;83;22108;-58
2021/06/25 04:54:28;;;;;;;35.40;17.57;;;;;;;24.55;100.00;99380.28;1687857;83;21142;-58
2021/06/25 04:56:55;;;;;;;52.58;19.00;;;;;;;24.63;100.00;99385.38;1685046;83;21088;-59
2021/06/25 04:59:21;;;;;;;44.80;12.33;;;;;;;24.73;100.00;99380.73;1683316;83;20973;-59
2021/06/25 05:01:48;;;;;;;31.55;11.22;;;;;;;24.80;100.00;99374.85;1689651;83;20973;-58
2021/06/25 05:04:15;;;;;;;57.20;22.77;;;;;;;24.93;100.00;99370.66;1686672;83;21118;-59
2021/06/25 05:06:41;;;;;;;39.08;16.30;;;;;;;25.13;100.00;99366.03;1685706;83;20995;-58
2021/06/25 05:09:08;;;;;;;39.78;11.95;;;;;;;25.29;100.00;99364.69;1687186;83;21056;-59
2021/06/25 05:11:34;;;;;;;95.47;12.25;;;;;;;25.45;100.00;99367.63;1688403;82;21047;-58
2021/06/25 05:14:01;;;;;;;31.10;8.63;;;;;;;25.63;100.00;99362.52;1694588;83;21473;-58
2021/06/25 05:16:28;;;;;;;41.15;8.85;;;;;;;25.70;100.00;99362.44;1686069;83;21040;-58
2021/06/25 05:18:56;;;;;;;28.12;8.90;;;;;;;25.75;100.00;99361.59;1687462;83;20972;-58
2021/06/25 05:21:24;;;;;;;39.70;9.63;;;;;;;25.87;100.00;99363.42;1686607;82;21118;-58
2021/06/25 05:23:50;;;;;;;44.55;10.00;;;;;;;26.01;100.00;99365.09;1683655;83;21007;-58
2021/06/25 05:26:19;;;;;;;24.72;8.73;;;;;;;26.19;100.00;99375.65;1682231;83;21611;-59
2021/06/25 05:28:45;;;;;;;31.85;7.65;;;;;;;26.45;100.00;99377.14;1694745;83;21124;-59
2021/06/25 05:31:13;;;;;;;39.13;7.97;;;;;;;26.72;100.00;99386.31;1688231;83;20925;-59
2021/06/25 05:33:39;;;;;;;41.40;7.50;;;;;;;26.76;100.00;99387.77;1670637;83;20853;-59
2021/06/25 05:36:06;;;;;;;24.00;7.87;;;;;;;26.92;100.00;99395.89;1657184;85;20964;-58
2021/06/25 05:38:33;;;;;;;27.33;8.87;;;;;;;27.11;100.00;99396.41;1667798;83;21068;-59
2021/06/25 05:41:00;;;;;;;32.28;10.60;;;;;;;27.23;100.00;99403.72;1689790;83;21239;-58
2021/06/25 05:43:26;;;;;;;26.20;9.13;;;;;;;27.33;100.00;99401.13;1682719;82;20961;-58
2021/06/25 05:45:53;;;;;;;29.65;7.70;;;;;;;27.48;100.00;99409.61;1690919;83;20974;-59
2021/06/25 05:48:20;;;;;;;26.20;7.15;;;;;;;27.89;100.00;99412.59;1700334;83;21427;-59
2021/06/25 05:50:46;;;;;;;45.38;8.05;;;;;;;28.15;98.19;99422.19;1660089;85;20919;-58
2021/06/25 05:53:14;;;;;;;27.48;7.28;;;;;;;28.03;95.26;99421.05;1664230;83;21179;-58
2021/06/25 05:55:43;;;;;;;23.50;6.35;;;;;;;28.03;96.00;99422.44;1701372;82;21079;-59
2021/06/25 05:58:10;;;;;;;24.30;6.92;;;;;;;28.37;96.66;99414.14;1661596;85;21477;-58
2021/06/25 06:00:38;;;;;;;26.57;6.60;;;;;;;28.74;93.89;99415.58;1658793;85;21077;-59
2021/06/25 06:03:05;;;;;;;;;;;;;;;28.74;92.81;99407.29;1671942;85;21395;-59
2021/06/25 06:05:31;;;;;;;23.77;7.45;;;;;;;28.69;93.09;99406.82;1648810;85;21129;-59
2021/06/25 06:07:58;;;;;;;28.07;7.00;;;;;;;28.94;95.23;99402.34;1668424;84;20845;-59
2021/06/25 06:10:25;;;;;;;27.02;6.50;;;;;;;29.28;88.53;99401.66;1700264;83;20990;-59
2021/06/25 06:12:51;;;;;;;22.62;6.12;;;;;;;29.16;90.11;99399.80;1658460;84;21012;-60
2021/06/25 06:15:19;;;;;;;32.03;7.45;;;;;;;29.38;82.98;99392.45;1668887;83;20967;-60
2021/06/25 06:17:51;;;;;;;26.30;6.53;;;;;;;29.57;82.49;99394.95;1675146;84;21138;-59
2021/06/25 06:20:18;;;;;;;29.63;7.40;;;;;;;29.67;82.47;99401.16;1662421;84;21116;-59
2021/06/25 06:31:11;;;;;;;44.38;10.23;;;;;;;30.18;77.45;99410.47;1647083;85;21140;-60
2021/06/25 06:36:00;;;;;;;28.90;8.53;;;;;;;30.76;73.90;99416.99;1659740;85;21045;-61
2021/06/25 06:38:29;;;;;;;28.12;7.25;;;;;;;30.96;70.07;99425.15;1687362;83;21706;-60
2021/06/25 06:40:55;;;;;;;24.00;7.83;;;;;;;31.12;70.02;99420.61;1685536;83;20967;-60
2021/06/25 06:43:22;;;;;;;25.02;7.78;;;;;;;31.47;70.10;99416.86;1693633;83;21345;-60
2021/06/25 06:45:49;;;;;;;32.55;6.85;;;;;;;31.88;67.06;99419.15;1684249;83;20917;-60
2021/06/25 06:48:15;;;;;;;39.67;8.35;;;;;;;32.03;63.81;99413.77;1673398;84;21065;-61
2021/06/25 06:50:43;;;;;;;26.75;6.50;;;;;;;31.74;65.95;99404.71;1692488;82;20942;-60
2021/06/25 06:53:11;;;;;;;38.38;7.60;;;;;;;31.58;68.24;99396.23;1692324;82;21425;-60
2021/06/25 06:55:43;;;;;;;44.67;8.50;;;;;;;31.49;70.42;99397.23;1696174;82;21126;-61
2021/06/25 06:58:06;;;;;;;34.58;6.17;;;;;;;31.85;68.06;99401.89;1685929;81;21565;-61
2021/06/25 07:00:33;;;;;;;28.42;5.67;;;;;;;32.24;63.59;99410.91;1681381;82;21589;-61
2021/06/25 07:02:59;;;;;;;33.75;6.30;;;;;;;32.65;60.80;99417.23;1698718;82;21031;-61
2021/06/25 07:05:26;;;;;;;35.08;7.50;;;;;;;32.72;62.28;99425.34;1691272;82;21499;-61
2021/06/25 07:07:52;;;;;;;;;;;;;;;32.12;60.58;99423.03;1684102;83;21121;-61
2021/06/25 07:10:19;;;;;;;;;;;;;;;31.49;64.71;99416.66;1695133;82;20117;-61
2021/06/25 07:12:46;;;;;;;30.77;7.20;;;;;;;31.16;67.99;99424.76;1691525;82;20110;-61
2021/06/25 07:15:13;;;;;;;37.73;8.03;;;;;;;30.81;72.48;99427.68;1640384;85;21026;-61
2021/06/25 07:17:40;;;;;;;31.68;6.30;;;;;;;30.63;74.83;99429.64;1667094;84;20926;-60
2021/06/25 07:20:08;;;;;;;38.65;6.83;;;;;;;30.51;77.04;99437.72;1656695;84;21087;-60
2021/06/25 07:22:35;;;;;;;35.05;6.87;;;;;;;30.58;74.45;99441.11;1690234;83;21028;-62
2021/06/25 07:25:03;;;;;;;34.67;6.62;;;;;;;30.30;74.39;99434.27;1686048;83;21138;-62
2021/06/25 07:27:32;;;;;;;26.25;6.60;;;;;;;30.26;73.90;99438.42;1700756;83;21487;-64
2021/06/25 07:29:58;;;;;;;21.87;6.03;;;;;;;30.26;74.28;99442.58;1691618;83;21116;-62
2021/06/25 07:32:27;;;;;;;33.87;6.83;;;;;;;30.31;75.61;99436.66;1694799;83;21211;-62
2021/06/25 07:34:53;;;;;;;34.80;6.75;;;;;;;30.33;77.57;99434.90;1690005;83;20905;-63
2021/06/25 07:37:20;;;;;;;22.95;6.72;;;;;;;30.21;80.66;99427.70;1688545;82;21002;-63
2021/06/25 07:39:47;;;;;;;36.30;7.53;;;;;;;30.20;83.34;99431.63;1681039;83;21384;-63
2021/06/25 07:42:17;;;;;;;32.93;6.40;;;;;;;30.15;82.91;99432.02;1688483;82;21401;-62
2021/06/25 07:44:45;;;;;;;50.88;11.10;;;;;;;30.02;85.42;99426.62;1688799;83;20910;-60
2021/06/25 07:47:14;;;;;;;34.03;7.90;;;;;;;29.97;87.87;99423.64;1670408;83;21407;-61
2021/06/25 07:49:40;;;;;;;29.42;7.55;;;;;;;30.05;86.66;99427.23;1680058;83;21096;-61
2021/06/25 07:52:08;;;;;;;34.92;8.08;;;;;;;29.97;87.99;99427.00;1688618;83;21075;-61
2021/06/25 07:54:35;;;;;;;26.00;6.80;;;;;;;30.08;89.82;99425.84;1680411;83;21066;-60
2021/06/25 07:57:03;;;;;;;27.87;6.62;;;;;;;30.26;86.86;99423.20;1717420;82;21703;-60
2021/06/25 07:59:32;;;;;;;28.05;7.05;;;;;;;30.35;85.31;99421.44;1692279;83;20892;-62
2021/06/25 08:02:00;;;;;;;33.47;7.43;;;;;;;30.36;87.06;99418.09;1685857;83;20988;-61
2021/06/25 08:04:29;;;;;;;40.52;8.83;;;;;;;30.44;87.36;99422.46;1688642;83;21287;-63
2021/06/25 08:06:56;;;;;;;41.80;7.67;;;;;;;30.43;86.65;99417.52;1658409;84;21443;-62
2021/06/25 08:09:22;;;;;;;44.67;7.78;;;;;;;30.71;85.73;99423.70;1684994;82;21188;-62
2021/06/25 08:11:50;;;;;;;33.05;6.72;;;;;;;31.01;81.29;99414.87;1690438;82;20983;-61
2021/06/25 08:14:17;;;;;;;37.78;7.72;;;;;;;31.24;76.16;99415.27;1685001;83;21195;-64
2021/06/25 08:16:44;;;;;;;38.53;7.75;;;;;;;31.37;77.26;99409.50;1709775;83;20984;-61
2021/06/25 08:19:12;;;;;;;27.87;7.00;;;;;;;31.39;74.99;99414.69;1719768;82;20945;-64
2021/06/25 08:21:39;;;;;;;32.75;7.22;;;;;;;31.80;74.54;99415.01;1703978;82;21749;-61
2021/06/25 08:24:07;;;;;;;;;;;;;;;32.51;71.44;99424.28;1697149;83;20898;-61
2021/06/25 08:26:34;;;;;;;52.67;8.53;;;;;;;33.08;68.20;99423.91;1691508;83;20081;-62
2021/06/25 08:29:01;;;;;;;32.15;7.10;;;;;;;33.38;59.31;99430.80;1694289;83;21005;-63
2021/06/25 08:31:28;;;;;;;24.67;7.08;;;;;;;33.22;57.94;99424.40;1693362;83;21002;-61
2021/06/25 08:33:55;;;;;;;30.10;5.58;;;;;;;33.06;58.90;99416.57;1677596;83;21140;-62
2021/06/25 08:36:24;;;;;;;30.12;6.80;;;;;;;33.17;55.99;99419.28;1683104;82;21695;-62
2021/06/25 08:38:51;;;;;;;37.05;6.58;;;;;;;33.43;55.06;99415.05;1700423;83;21092;-62
2021/06/25 08:41:17;;;;;;;25.92;5.08;;;;;;;33.64;54.68;99411.30;1694442;83;21082;-62
2021/06/25 08:43:44;;;;;;;31.35;6.28;;;;;;;33.71;51.20;99408.45;1702440;83;21012;-63
2021/06/25 08:46:11;;;;;;;29.05;5.97;;;;;;;33.87;50.09;99415.42;1695242;82;21161;-64
2021/06/25 08:48:38;;;;;;;17.70;4.72;;;;;;;34.03;52.03;99419.81;1678423;83;21008;-62
2021/06/25 08:51:06;;;;;;;36.00;5.75;;;;;;;33.87;47.75;99423.16;1696855;82;21400;-63
2021/06/25 08:53:33;;;;;;;25.92;4.70;;;;;;;33.75;42.91;99423.70;1660661;83;21079;-62
2021/06/25 08:56:00;;;;;;;19.25;4.95;;;;;;;34.38;41.41;99418.41;1690529;83;21100;-61
2021/06/25 08:58:26;;;;;;;16.75;3.65;;;;;;;34.85;38.82;99418.54;1688310;82;21806;-63
2021/06/25 09:00:53;;;;;;;20.50;4.22;;;;;;;34.93;37.54;99415.20;1688335;81;21426;-63
2021/06/25 09:03:25;;;;;;;16.52;3.60;;;;;;;34.86;38.35;99415.31;1690758;82;21409;-62
2021/06/25 09:05:52;;;;;;;27.45;5.17;;;;;;;35.08;36.30;99404.59;1675514;83;21766;-61
2021/06/25 09:08:29;;;;;;;25.50;4.90;;;;;;;35.30;37.66;99407.05;1698973;82;21038;-63
2021/06/25 09:11:01;;;;;;;25.27;5.00;;;;;;;35.16;38.83;99402.53;1695710;82;21086;-62
2021/06/25 09:13:34;;;;;;;24.92;4.78;;;;;;;35.30;40.03;99395.89;1669637;83;21049;-63
2021/06/25 09:16:02;;;;;;;24.63;5.50;;;;;;;35.03;39.58;99387.57;1639268;85;20981;-62
2021/06/25 09:18:28;;;;;;;33.65;5.35;;;;;;;34.95;40.03;99384.12;1654894;84;21066;-64
2021/06/25 09:20:57;;;;;;;26.20;5.10;;;;;;;34.99;41.56;99382.06;1629832;85;21060;-64
2021/06/25 09:23:37;;;;;;;26.27;5.25;;;;;;;34.62;42.46;99381.64;1656574;84;21120;-62
2021/06/25 09:26:07;;;;;;;33.35;5.28;;;;;;;34.69;44.61;99380.95;1656366;85;21521;-63
2021/06/25 09:28:43;;;;;;;28.40;6.05;;;;;;;34.75;45.51;99379.25;1655586;84;20930;-62
2021/06/25 09:31:22;;;;;;;21.70;6.08;;;;;;;34.72;44.17;99380.11;1672513;84;21118;-62
2021/06/25 09:33:56;;;;;;;24.45;5.00;;;;;;;34.87;42.95;99375.09;1682275;83;21066;-64
2021/06/25 09:36:31;;;;;;;26.15;5.15;;;;;;;35.21;38.66;99383.30;1685747;82;21059;-63
2021/06/25 09:39:13;;;;;;;27.62;5.55;;;;;;;35.35;38.75;99383.66;1691367;82;21516;-64
2021/06/25 09:41:42;;;;;;;23.52;4.83;;;;;;;35.44;39.69;99381.69;1690126;82;21001;-60
2021/06/25 09:44:16;;;;;;;28.98;5.83;;;;;;;35.65;39.80;99376.34;1688739;82;21482;-61
2021/06/25 09:46:45;;;;;;;30.75;5.35;;;;;;;35.79;38.45;99373.86;1707334;82;20958;-63
2021/06/25 09:49:15;;;;;;;36.00;5.53;;;;;;;35.80;38.80;99381.03;1678041;82;21015;-62
2021/06/25 09:52:03;;;;;;;20.27;4.20;;;;;;;35.94;37.59;99384.13;1682277;83;21526;-61
2021/06/25 09:54:30;;;;;;;32.45;5.22;;;;;;;35.87;36.17;99382.29;1678782;82;20920;-63
2021/06/25 10:02:23;;;;;;;23.77;4.50;;;;;;;36.41;37.30;99383.95;1667016;84;21135;-64
2021/06/25 10:04:51;;;;;;;25.43;4.35;;;;;;;36.26;35.19;99379.30;1674299;84;20984;-62
2021/06/25 10:07:25;;;;;;;23.35;4.50;;;;;;;36.06;37.13;99373.11;1643246;84;21019;-63
2021/06/25 10:09:53;;;;;;;19.05;4.65;;;;;;;36.14;36.77;99378.57;1640738;85;21120;-64
2021/06/25 10:12:21;;;;;;;24.00;4.40;;;;;;;35.80;35.60;99379.64;1663229;84;20995;-63
2021/06/25 10:14:51;;;;;;;28.70;4.72;;;;;;;35.73;37.19;99369.39;1660095;84;21210;-64
2021/06/25 10:17:18;;;;;;;21.50;4.40;;;;;;;35.68;36.45;99374.09;1667424;84;21379;-62
2021/06/25 10:19:49;;;;;;;23.00;4.10;;;;;;;35.53;37.63;99374.95;1684792;83;21003;-62
2021/06/25 10:22:18;;;;;;;23.92;4.53;;;;;;;35.75;37.94;99370.38;1714532;82;21094;-63
2021/06/25 10:24:48;;;;;;;20.12;3.92;;;;;;;35.98;37.99;99373.67;1670887;84;21015;-64
2021/06/25 10:27:19;;;;;;;25.48;4.22;;;;;;;36.09;38.34;99372.07;1637865;86;21131;-64
2021/06/25 10:29:47;;;;;;;26.68;4.90;;;;;;;35.69;39.05;99370.06;1629813;86;21501;-65
2021/06/25 10:32:16;;;;;;;30.65;4.72;;;;;;;35.27;38.56;99368.25;1645815;85;21057;-65
2021/06/25 10:34:43;;;;;;;25.12;4.53;;;;;;;35.05;40.42;99362.23;1655470;85;21014;-62
2021/06/25 10:37:18;;;;;;;83.42;9.30;;;;;;;35.10;39.32;99361.77;1643875;86;21112;-61
2021/06/25 10:39:44;;;;;;;30.43;4.95;;;;;;;35.49;39.45;99367.23;1651356;86;21719;-62
2021/06/25 10:42:12;;;;;;;26.02;4.28;;;;;;;35.56;40.15;99376.09;1671528;84;21050;-64
2021/06/25 10:44:56;;;;;;;22.45;5.00;;;;;;;35.34;38.55;99384.08;1632391;87;21067;-64
2021/06/25 10:47:31;;;;;;;13.43;3.42;;;;;;;35.31;39.97;99374.56;1620988;86;21142;-64
2021/06/25 10:50:14;;;;;;;27.62;4.90;;;;;;;35.34;38.53;99372.91;1656305;85;21059;-64
2021/06/25 10:52:40;;;;;;;19.32;4.15;;;;;;;35.45;38.22;99377.70;1685018;83;21589;-64
2021/06/25 10:55:19;;;;;;;26.40;4.45;;;;;;;35.68;40.16;99373.30;1682030;83;21142;-64
2021/06/25 10:57:52;;;;;;;;;;;;;;;36.08;38.18;99381.65;1698185;83;21385;-65
2021/06/25 11:00:42;;;;;;;32.95;4.55;;;;;;;36.13;36.45;99384.74;1674667;83;20090;-63
2021/06/25 11:03:36;;;;;;;19.65;3.87;;;;;;;35.81;36.60;99379.19;1693428;82;21154;-63
2021/06/25 11:06:06;;;;;;;14.73;3.92;;;;;;;35.89;35.01;99381.22;1686978;83;22452;-62
2021/06/25 11:11:36;;;;;;;20.12;4.03;;;;;;;36.12;34.74;99382.40;1687227;83;20881;-64
2021/06/25 11:14:03;;;;;;;32.93;4.08;;;;;;;36.20;31.90;99382.41;1686599;83;20989;-64
2021/06/25 11:16:30;;;;;;;20.82;3.77;;;;;;;36.06;32.63;99375.91;1707480;83;21015;-64
2021/06/25 11:18:59;;;;;;;13.08;3.12;;;;;;;36.34;32.85;99374.34;1708321;83;21000;-64
2021/06/25 11:21:43;;;;;;;17.17;2.77;;;;;;;36.35;30.08;99367.52;1707288;83;20985;-65
2021/06/25 11:24:09;;;;;;;22.75;3.70;;;;;;;35.98;31.80;99364.69;1675680;84;20948;-64
2021/06/25 11:26:45;;;;;;;13.50;3.85;;;;;;;35.79;31.68;99362.70;1625530;87;21056;-64
2021/06/25 11:29:11;;;;;;;12.18;3.12;;;;;;;35.82;33.33;99363.25;1704297;83;20997;-63
2021/06/25 11:31:39;;;;;;;11.43;3.58;;;;;;;35.74;33.21;99364.59;1671801;85;21119;-65
2021/06/25 11:34:06;;;;;;;;;;;;;;;35.81;32.97;99359.64;1649312;86;21086;-63
2021/06/25 11:36:51;;;;;;;17.65;3.45;;;;;;;35.90;32.37;99355.51;1668369;84;20086;-64
2021/06/25 11:39:33;;;;;;;15.43;2.62;;;;;;;35.78;35.15;99352.75;1684875;83;21070;-63
2021/06/25 11:42:14;;;;;;;13.00;2.67;;;;;;;36.11;35.43;99340.31;1717884;83;20960;-64
2021/06/25 11:44:49;;;;;;;13.25;3.27;;;;;;;36.32;33.10;99342.62;1708235;83;21825;-64